sensor_id;sensor_type;location;lat;lon;timestamp;temperature;humidity
45785;DHT22;31489;51.404;5.474;2023-04-21T00:01:24;12.90;61.10
45785;DHT22;31489;51.404;5.474;2023-04-21T00:03:50;12.90;61.30
45785;DHT22;31489;51.404;5.474;2023-04-21T00:06:16;12.90;61.50
45785;DHT22;31489;51.404;5.474;2023-04-21T00:08:47;12.90;61.40
45785;DHT22;31489;51.404;5.474;2023-04-21T00:11:13;12.90;61.60
45785;DHT22;31489;51.404;5.474;2023-04-21T00:13:39;12.90;62.20
45785;DHT22;31489;51.404;5.474;2023-04-21T00:16:05;12.90;62.10
45785;DHT22;31489;51.404;5.474;2023-04-21T00:18:31;12.90;62.10
45785;DHT22;31489;51.404;5.474;2023-04-21T00:20:56;12.80;62.10
45785;DHT22;31489;51.404;5.474;2023-04-21T00:23:22;12.80;62.30
45785;DHT22;31489;51.404;5.474;2023-04-21T00:25:48;12.80;62.40
45785;DHT22;31489;51.404;5.474;2023-04-21T00:28:13;12.80;62.40
45785;DHT22;31489;51.404;5.474;2023-04-21T00:30:39;12.80;62.60
45785;DHT22;31489;51.404;5.474;2023-04-21T00:33:04;12.80;62.70
45785;DHT22;31489;51.404;5.474;2023-04-21T00:35:30;12.80;62.60
45785;DHT22;31489;51.404;5.474;2023-04-21T00:37:55;12.70;62.60
45785;DHT22;31489;51.404;5.474;2023-04-21T00:40:21;12.70;62.70
45785;DHT22;31489;51.404;5.474;2023-04-21T00:42:47;12.70;63.10
45785;DHT22;31489;51.404;5.474;2023-04-21T00:45:12;12.70;63.30
45785;DHT22;31489;51.404;5.474;2023-04-21T00:47:40;12.70;63.10
45785;DHT22;31489;51.404;5.474;2023-04-21T00:50:05;12.70;63.10
45785;DHT22;31489;51.404;5.474;2023-04-21T00:52:33;12.70;63.50
45785;DHT22;31489;51.404;5.474;2023-04-21T00:54:59;12.70;64.00
45785;DHT22;31489;51.404;5.474;2023-04-21T00:57:26;12.70;64.00
45785;DHT22;31489;51.404;5.474;2023-04-21T00:59:53;12.70;63.70
45785;DHT22;31489;51.404;5.474;2023-04-21T01:02:19;12.70;63.30
45785;DHT22;31489;51.404;5.474;2023-04-21T01:04:46;12.70;63.60
45785;DHT22;31489;51.404;5.474;2023-04-21T01:07:12;12.70;63.80
45785;DHT22;31489;51.404;5.474;2023-04-21T01:09:37;12.70;63.90
45785;DHT22;31489;51.404;5.474;2023-04-21T01:12:08;12.60;64.10
45785;DHT22;31489;51.404;5.474;2023-04-21T01:14:35;12.60;64.40
45785;DHT22;31489;51.404;5.474;2023-04-21T01:17:01;12.60;64.30
45785;DHT22;31489;51.404;5.474;2023-04-21T01:19:31;12.60;64.50
45785;DHT22;31489;51.404;5.474;2023-04-21T01:21:57;12.60;64.90
45785;DHT22;31489;51.404;5.474;2023-04-21T01:24:44;12.60;64.60
45785;DHT22;31489;51.404;5.474;2023-04-21T01:27:12;12.60;65.40
45785;DHT22;31489;51.404;5.474;2023-04-21T01:29:39;12.60;65.00
45785;DHT22;31489;51.404;5.474;2023-04-21T01:32:08;12.60;64.80
45785;DHT22;31489;51.404;5.474;2023-04-21T01:34:34;12.60;65.00
45785;DHT22;31489;51.404;5.474;2023-04-21T01:37:00;12.60;65.00
45785;DHT22;31489;51.404;5.474;2023-04-21T01:39:25;12.50;64.90
45785;DHT22;31489;51.404;5.474;2023-04-21T01:41:51;12.50;65.00
45785;DHT22;31489;51.404;5.474;2023-04-21T01:44:17;12.60;65.00
45785;DHT22;31489;51.404;5.474;2023-04-21T01:46:43;12.60;65.00
45785;DHT22;31489;51.404;5.474;2023-04-21T01:49:08;12.60;65.10
45785;DHT22;31489;51.404;5.474;2023-04-21T01:51:34;12.50;65.30
45785;DHT22;31489;51.404;5.474;2023-04-21T01:53:59;12.50;65.50
45785;DHT22;31489;51.404;5.474;2023-04-21T01:56:25;12.50;65.40
45785;DHT22;31489;51.404;5.474;2023-04-21T01:58:50;12.50;65.60
45785;DHT22;31489;51.404;5.474;2023-04-21T02:01:17;12.50;65.80
45785;DHT22;31489;51.404;5.474;2023-04-21T02:03:43;12.50;65.70
45785;DHT22;31489;51.404;5.474;2023-04-21T02:06:10;12.50;65.90
45785;DHT22;31489;51.404;5.474;2023-04-21T02:08:36;12.50;65.90
45785;DHT22;31489;51.404;5.474;2023-04-21T02:11:01;12.50;65.60
45785;DHT22;31489;51.404;5.474;2023-04-21T02:13:27;12.50;65.40
45785;DHT22;31489;51.404;5.474;2023-04-21T02:15:52;12.50;65.70
45785;DHT22;31489;51.404;5.474;2023-04-21T02:18:18;12.50;65.80
45785;DHT22;31489;51.404;5.474;2023-04-21T02:20:44;12.50;65.80
45785;DHT22;31489;51.404;5.474;2023-04-21T02:23:10;12.50;66.10
45785;DHT22;31489;51.404;5.474;2023-04-21T02:25:35;12.50;66.00
45785;DHT22;31489;51.404;5.474;2023-04-21T02:28:01;12.50;65.90
45785;DHT22;31489;51.404;5.474;2023-04-21T02:30:27;12.50;66.00
45785;DHT22;31489;51.404;5.474;2023-04-21T02:32:52;12.50;65.80
45785;DHT22;31489;51.404;5.474;2023-04-21T02:35:18;12.50;65.80
45785;DHT22;31489;51.404;5.474;2023-04-21T02:37:43;12.50;66.00
45785;DHT22;31489;51.404;5.474;2023-04-21T02:40:09;12.50;65.80
45785;DHT22;31489;51.404;5.474;2023-04-21T02:42:35;12.50;65.70
45785;DHT22;31489;51.404;5.474;2023-04-21T02:45:01;12.50;66.20
45785;DHT22;31489;51.404;5.474;2023-04-21T02:47:26;12.50;66.40
45785;DHT22;31489;51.404;5.474;2023-04-21T02:49:52;12.50;66.40
45785;DHT22;31489;51.404;5.474;2023-04-21T02:52:17;12.50;66.40
45785;DHT22;31489;51.404;5.474;2023-04-21T02:54:43;12.50;66.60
45785;DHT22;31489;51.404;5.474;2023-04-21T02:57:08;12.40;66.80
45785;DHT22;31489;51.404;5.474;2023-04-21T02:59:34;12.40;66.70
45785;DHT22;31489;51.404;5.474;2023-04-21T03:02:00;12.40;66.80
45785;DHT22;31489;51.404;5.474;2023-04-21T03:04:25;12.40;66.80
45785;DHT22;31489;51.404;5.474;2023-04-21T03:06:52;12.40;66.80
45785;DHT22;31489;51.404;5.474;2023-04-21T03:09:18;12.40;66.90
45785;DHT22;31489;51.404;5.474;2023-04-21T03:11:44;12.40;66.60
45785;DHT22;31489;51.404;5.474;2023-04-21T03:14:09;12.40;66.90
45785;DHT22;31489;51.404;5.474;2023-04-21T03:16:38;12.40;67.00
45785;DHT22;31489;51.404;5.474;2023-04-21T03:19:03;12.40;66.80
45785;DHT22;31489;51.404;5.474;2023-04-21T03:21:29;12.30;66.80
45785;DHT22;31489;51.404;5.474;2023-04-21T03:23:55;12.30;66.80
45785;DHT22;31489;51.404;5.474;2023-04-21T03:26:21;12.30;66.90
45785;DHT22;31489;51.404;5.474;2023-04-21T03:28:46;12.30;67.10
45785;DHT22;31489;51.404;5.474;2023-04-21T03:31:12;12.30;67.10
45785;DHT22;31489;51.404;5.474;2023-04-21T03:33:38;12.30;67.30
45785;DHT22;31489;51.404;5.474;2023-04-21T03:36:03;12.30;67.40
45785;DHT22;31489;51.404;5.474;2023-04-21T03:38:29;12.30;67.80
45785;DHT22;31489;51.404;5.474;2023-04-21T03:40:55;12.30;67.60
45785;DHT22;31489;51.404;5.474;2023-04-21T03:43:20;12.30;67.70
45785;DHT22;31489;51.404;5.474;2023-04-21T03:45:46;12.30;68.30
45785;DHT22;31489;51.404;5.474;2023-04-21T03:48:12;12.30;68.40
45785;DHT22;31489;51.404;5.474;2023-04-21T03:50:37;12.30;67.70
45785;DHT22;31489;51.404;5.474;2023-04-21T03:53:03;12.40;68.00
45785;DHT22;31489;51.404;5.474;2023-04-21T03:55:28;12.40;68.00
45785;DHT22;31489;51.404;5.474;2023-04-21T03:57:54;12.40;68.00
45785;DHT22;31489;51.404;5.474;2023-04-21T04:00:20;12.40;68.20
45785;DHT22;31489;51.404;5.474;2023-04-21T04:02:45;12.40;68.20
45785;DHT22;31489;51.404;5.474;2023-04-21T04:05:11;12.40;68.30
45785;DHT22;31489;51.404;5.474;2023-04-21T04:07:37;12.40;68.40
45785;DHT22;31489;51.404;5.474;2023-04-21T04:10:02;12.40;68.30
45785;DHT22;31489;51.404;5.474;2023-04-21T04:12:28;12.40;68.50
45785;DHT22;31489;51.404;5.474;2023-04-21T04:14:54;12.40;68.30
45785;DHT22;31489;51.404;5.474;2023-04-21T04:17:19;12.40;68.40
45785;DHT22;31489;51.404;5.474;2023-04-21T04:19:45;12.40;68.40
45785;DHT22;31489;51.404;5.474;2023-04-21T04:22:11;12.40;68.50
45785;DHT22;31489;51.404;5.474;2023-04-21T04:24:36;12.40;68.50
45785;DHT22;31489;51.404;5.474;2023-04-21T04:27:02;12.50;68.40
45785;DHT22;31489;51.404;5.474;2023-04-21T04:29:28;12.50;68.50
45785;DHT22;31489;51.404;5.474;2023-04-21T04:31:54;12.50;68.70
45785;DHT22;31489;51.404;5.474;2023-04-21T04:34:20;12.50;68.70
45785;DHT22;31489;51.404;5.474;2023-04-21T04:36:47;12.50;68.60
45785;DHT22;31489;51.404;5.474;2023-04-21T04:39:15;12.50;68.70
45785;DHT22;31489;51.404;5.474;2023-04-21T04:41:40;12.50;68.70
45785;DHT22;31489;51.404;5.474;2023-04-21T04:44:06;12.50;69.40
45785;DHT22;31489;51.404;5.474;2023-04-21T04:46:32;12.50;68.60
45785;DHT22;31489;51.404;5.474;2023-04-21T04:48:58;12.50;68.70
45785;DHT22;31489;51.404;5.474;2023-04-21T04:51:24;12.50;68.70
45785;DHT22;31489;51.404;5.474;2023-04-21T04:53:50;12.50;68.50
45785;DHT22;31489;51.404;5.474;2023-04-21T04:56:16;12.50;68.20
45785;DHT22;31489;51.404;5.474;2023-04-21T04:58:41;12.50;68.50
45785;DHT22;31489;51.404;5.474;2023-04-21T05:01:16;12.50;68.40
45785;DHT22;31489;51.404;5.474;2023-04-21T05:03:43;12.50;68.70
45785;DHT22;31489;51.404;5.474;2023-04-21T05:06:09;12.50;68.40
45785;DHT22;31489;51.404;5.474;2023-04-21T05:08:35;12.50;68.40
45785;DHT22;31489;51.404;5.474;2023-04-21T05:11:01;12.40;68.60
45785;DHT22;31489;51.404;5.474;2023-04-21T05:13:27;12.40;68.70
45785;DHT22;31489;51.404;5.474;2023-04-21T05:15:57;12.40;68.80
45785;DHT22;31489;51.404;5.474;2023-04-21T05:18:23;12.50;69.20
45785;DHT22;31489;51.404;5.474;2023-04-21T05:20:48;12.40;69.00
45785;DHT22;31489;51.404;5.474;2023-04-21T05:23:14;12.40;69.00
45785;DHT22;31489;51.404;5.474;2023-04-21T05:25:39;12.50;68.80
45785;DHT22;31489;51.404;5.474;2023-04-21T05:28:05;12.40;68.80
45785;DHT22;31489;51.404;5.474;2023-04-21T05:30:30;12.40;68.80
45785;DHT22;31489;51.404;5.474;2023-04-21T05:32:56;12.40;69.00
45785;DHT22;31489;51.404;5.474;2023-04-21T05:35:21;12.40;68.90
45785;DHT22;31489;51.404;5.474;2023-04-21T05:37:47;12.40;68.90
45785;DHT22;31489;51.404;5.474;2023-04-21T05:40:13;12.40;69.50
45785;DHT22;31489;51.404;5.474;2023-04-21T05:42:38;12.40;69.00
45785;DHT22;31489;51.404;5.474;2023-04-21T05:45:04;12.40;68.90
45785;DHT22;31489;51.404;5.474;2023-04-21T05:47:30;12.40;69.00
45785;DHT22;31489;51.404;5.474;2023-04-21T05:49:56;12.40;69.00
45785;DHT22;31489;51.404;5.474;2023-04-21T05:52:21;12.40;69.00
45785;DHT22;31489;51.404;5.474;2023-04-21T05:54:47;12.40;69.10
45785;DHT22;31489;51.404;5.474;2023-04-21T05:57:13;12.30;69.10
45785;DHT22;31489;51.404;5.474;2023-04-21T05:59:38;12.30;69.00
45785;DHT22;31489;51.404;5.474;2023-04-21T06:02:04;12.30;69.20
45785;DHT22;31489;51.404;5.474;2023-04-21T06:04:29;12.30;69.40
45785;DHT22;31489;51.404;5.474;2023-04-21T06:06:55;12.30;69.20
45785;DHT22;31489;51.404;5.474;2023-04-21T06:09:21;12.40;69.50
45785;DHT22;31489;51.404;5.474;2023-04-21T06:11:47;12.40;69.50
45785;DHT22;31489;51.404;5.474;2023-04-21T06:14:14;12.40;69.70
45785;DHT22;31489;51.404;5.474;2023-04-21T06:16:40;12.40;69.50
45785;DHT22;31489;51.404;5.474;2023-04-21T06:19:06;12.40;69.70
45785;DHT22;31489;51.404;5.474;2023-04-21T06:21:31;12.50;69.90
45785;DHT22;31489;51.404;5.474;2023-04-21T06:23:57;12.40;69.70
45785;DHT22;31489;51.404;5.474;2023-04-21T06:26:22;12.50;70.00
45785;DHT22;31489;51.404;5.474;2023-04-21T06:28:48;12.50;69.70
45785;DHT22;31489;51.404;5.474;2023-04-21T06:31:14;12.50;69.70
45785;DHT22;31489;51.404;5.474;2023-04-21T06:33:40;12.50;70.00
45785;DHT22;31489;51.404;5.474;2023-04-21T06:36:06;12.60;70.00
45785;DHT22;31489;51.404;5.474;2023-04-21T06:38:32;12.60;70.10
45785;DHT22;31489;51.404;5.474;2023-04-21T06:40:58;12.70;70.20
45785;DHT22;31489;51.404;5.474;2023-04-21T06:43:24;12.60;70.00
45785;DHT22;31489;51.404;5.474;2023-04-21T06:45:49;12.70;70.00
45785;DHT22;31489;51.404;5.474;2023-04-21T06:48:15;12.70;70.30
45785;DHT22;31489;51.404;5.474;2023-04-21T06:50:41;12.80;69.90
45785;DHT22;31489;51.404;5.474;2023-04-21T06:53:09;12.80;69.80
45785;DHT22;31489;51.404;5.474;2023-04-21T06:55:35;12.90;70.10
45785;DHT22;31489;51.404;5.474;2023-04-21T06:58:01;12.90;70.00
45785;DHT22;31489;51.404;5.474;2023-04-21T07:00:27;12.90;69.90
45785;DHT22;31489;51.404;5.474;2023-04-21T07:02:52;12.90;70.00
45785;DHT22;31489;51.404;5.474;2023-04-21T07:05:18;13.00;70.00
45785;DHT22;31489;51.404;5.474;2023-04-21T07:07:44;13.00;70.10
45785;DHT22;31489;51.404;5.474;2023-04-21T07:10:09;13.00;70.20
45785;DHT22;31489;51.404;5.474;2023-04-21T07:12:35;13.00;70.10
45785;DHT22;31489;51.404;5.474;2023-04-21T07:15:00;13.00;70.10
45785;DHT22;31489;51.404;5.474;2023-04-21T07:17:26;13.10;70.10
45785;DHT22;31489;51.404;5.474;2023-04-21T07:19:52;13.10;69.90
45785;DHT22;31489;51.404;5.474;2023-04-21T07:22:17;13.20;69.60
45785;DHT22;31489;51.404;5.474;2023-04-21T07:24:43;13.20;69.80
45785;DHT22;31489;51.404;5.474;2023-04-21T07:27:08;13.20;69.60
45785;DHT22;31489;51.404;5.474;2023-04-21T07:29:34;13.30;70.00
45785;DHT22;31489;51.404;5.474;2023-04-21T07:32:01;13.30;69.90
45785;DHT22;31489;51.404;5.474;2023-04-21T07:34:27;13.40;70.00
45785;DHT22;31489;51.404;5.474;2023-04-21T07:36:54;13.40;69.70
45785;DHT22;31489;51.404;5.474;2023-04-21T07:39:20;13.50;69.80
45785;DHT22;31489;51.404;5.474;2023-04-21T07:41:46;13.50;70.40
45785;DHT22;31489;51.404;5.474;2023-04-21T07:44:11;13.60;69.80
45785;DHT22;31489;51.404;5.474;2023-04-21T07:46:37;13.60;69.60
45785;DHT22;31489;51.404;5.474;2023-04-21T07:49:02;13.70;69.50
45785;DHT22;31489;51.404;5.474;2023-04-21T07:51:28;13.70;69.50
45785;DHT22;31489;51.404;5.474;2023-04-21T07:53:54;13.80;69.60
45785;DHT22;31489;51.404;5.474;2023-04-21T07:56:20;13.90;69.50
45785;DHT22;31489;51.404;5.474;2023-04-21T07:58:46;14.00;69.30
45785;DHT22;31489;51.404;5.474;2023-04-21T08:01:12;14.00;69.20
45785;DHT22;31489;51.404;5.474;2023-04-21T08:03:37;14.10;68.70
45785;DHT22;31489;51.404;5.474;2023-04-21T08:06:03;14.10;68.60
45785;DHT22;31489;51.404;5.474;2023-04-21T08:08:29;14.20;68.40
45785;DHT22;31489;51.404;5.474;2023-04-21T08:10:55;14.20;68.20
45785;DHT22;31489;51.404;5.474;2023-04-21T08:13:21;14.30;67.80
45785;DHT22;31489;51.404;5.474;2023-04-21T08:15:50;14.30;67.70
45785;DHT22;31489;51.404;5.474;2023-04-21T08:18:18;14.30;68.10
45785;DHT22;31489;51.404;5.474;2023-04-21T08:20:45;14.40;68.00
45785;DHT22;31489;51.404;5.474;2023-04-21T08:23:12;14.40;68.10
45785;DHT22;31489;51.404;5.474;2023-04-21T08:25:38;14.50;68.10
45785;DHT22;31489;51.404;5.474;2023-04-21T08:28:04;14.50;68.10
45785;DHT22;31489;51.404;5.474;2023-04-21T08:30:30;14.60;68.00
45785;DHT22;31489;51.404;5.474;2023-04-21T08:32:55;14.70;67.70
45785;DHT22;31489;51.404;5.474;2023-04-21T08:35:21;14.70;67.30
45785;DHT22;31489;51.404;5.474;2023-04-21T08:37:46;14.70;67.20
45785;DHT22;31489;51.404;5.474;2023-04-21T08:40:13;14.80;67.30
45785;DHT22;31489;51.404;5.474;2023-04-21T08:42:39;14.90;66.70
45785;DHT22;31489;51.404;5.474;2023-04-21T08:45:04;14.90;66.40
45785;DHT22;31489;51.404;5.474;2023-04-21T08:47:31;15.00;66.40
45785;DHT22;31489;51.404;5.474;2023-04-21T08:49:58;15.10;66.90
45785;DHT22;31489;51.404;5.474;2023-04-21T08:52:23;15.00;66.60
45785;DHT22;31489;51.404;5.474;2023-04-21T08:54:49;15.10;66.30
45785;DHT22;31489;51.404;5.474;2023-04-21T08:57:18;15.20;65.60
45785;DHT22;31489;51.404;5.474;2023-04-21T08:59:43;15.20;65.70
45785;DHT22;31489;51.404;5.474;2023-04-21T09:02:11;15.30;65.80
45785;DHT22;31489;51.404;5.474;2023-04-21T09:04:38;15.40;65.40
45785;DHT22;31489;51.404;5.474;2023-04-21T09:07:04;15.40;65.40
45785;DHT22;31489;51.404;5.474;2023-04-21T09:09:30;15.50;65.20
45785;DHT22;31489;51.404;5.474;2023-04-21T09:11:56;15.50;65.40
45785;DHT22;31489;51.404;5.474;2023-04-21T09:14:33;15.60;65.20
45785;DHT22;31489;51.404;5.474;2023-04-21T09:17:03;15.60;64.30
45785;DHT22;31489;51.404;5.474;2023-04-21T09:19:32;15.70;65.10
45785;DHT22;31489;51.404;5.474;2023-04-21T09:22:02;15.70;64.50
45785;DHT22;31489;51.404;5.474;2023-04-21T09:24:28;15.80;64.40
45785;DHT22;31489;51.404;5.474;2023-04-21T09:26:54;15.80;64.80
45785;DHT22;31489;51.404;5.474;2023-04-21T09:29:23;15.90;64.70
45785;DHT22;31489;51.404;5.474;2023-04-21T09:31:50;16.00;65.00
45785;DHT22;31489;51.404;5.474;2023-04-21T09:34:21;16.00;64.70
45785;DHT22;31489;51.404;5.474;2023-04-21T09:37:01;16.00;64.20
45785;DHT22;31489;51.404;5.474;2023-04-21T09:39:31;16.10;64.40
45785;DHT22;31489;51.404;5.474;2023-04-21T09:41:57;16.20;64.20
45785;DHT22;31489;51.404;5.474;2023-04-21T09:44:26;16.20;64.30
45785;DHT22;31489;51.404;5.474;2023-04-21T09:47:00;16.30;64.20
45785;DHT22;31489;51.404;5.474;2023-04-21T09:49:32;16.30;63.90
45785;DHT22;31489;51.404;5.474;2023-04-21T09:52:00;16.40;64.00
45785;DHT22;31489;51.404;5.474;2023-04-21T09:54:31;16.50;63.90
45785;DHT22;31489;51.404;5.474;2023-04-21T09:57:02;16.60;63.60
45785;DHT22;31489;51.404;5.474;2023-04-21T09:59:34;16.60;64.20
45785;DHT22;31489;51.404;5.474;2023-04-21T10:02:04;16.70;63.50
45785;DHT22;31489;51.404;5.474;2023-04-21T10:04:30;16.80;63.50
45785;DHT22;31489;51.404;5.474;2023-04-21T10:07:00;16.90;63.00
45785;DHT22;31489;51.404;5.474;2023-04-21T10:09:32;17.00;62.80
45785;DHT22;31489;51.404;5.474;2023-04-21T10:12:00;17.10;62.20
45785;DHT22;31489;51.404;5.474;2023-04-21T10:14:27;17.10;62.60
45785;DHT22;31489;51.404;5.474;2023-04-21T10:17:07;17.20;62.30
45785;DHT22;31489;51.404;5.474;2023-04-21T10:19:35;17.30;62.10
45785;DHT22;31489;51.404;5.474;2023-04-21T10:22:06;17.40;62.30
45785;DHT22;31489;51.404;5.474;2023-04-21T10:24:36;17.50;61.00
45785;DHT22;31489;51.404;5.474;2023-04-21T10:27:03;17.70;61.70
45785;DHT22;31489;51.404;5.474;2023-04-21T10:29:32;17.70;61.90
45785;DHT22;31489;51.404;5.474;2023-04-21T10:31:58;17.90;62.00
45785;DHT22;31489;51.404;5.474;2023-04-21T10:39:26;18.30;62.50
45785;DHT22;31489;51.404;5.474;2023-04-21T10:41:55;18.50;62.60
45785;DHT22;31489;51.404;5.474;2023-04-21T10:44:27;18.80;62.60
45785;DHT22;31489;51.404;5.474;2023-04-21T10:46:53;19.00;62.00
45785;DHT22;31489;51.404;5.474;2023-04-21T10:49:26;19.30;62.00
45785;DHT22;31489;51.404;5.474;2023-04-21T10:54:40;19.80;58.70
45785;DHT22;31489;51.404;5.474;2023-04-21T10:57:11;19.90;59.00
45785;DHT22;31489;51.404;5.474;2023-04-21T10:59:37;20.10;58.90
45785;DHT22;31489;51.404;5.474;2023-04-21T11:02:07;20.20;58.50
45785;DHT22;31489;51.404;5.474;2023-04-21T11:04:33;20.30;58.00
45785;DHT22;31489;51.404;5.474;2023-04-21T11:07:11;20.50;57.30
45785;DHT22;31489;51.404;5.474;2023-04-21T11:09:39;20.50;56.40
45785;DHT22;31489;51.404;5.474;2023-04-21T11:12:08;20.50;56.20
45785;DHT22;31489;51.404;5.474;2023-04-21T11:14:36;20.50;55.80
45785;DHT22;31489;51.404;5.474;2023-04-21T11:17:04;20.50;57.10
45785;DHT22;31489;51.404;5.474;2023-04-21T11:19:33;20.60;57.50
45785;DHT22;31489;51.404;5.474;2023-04-21T11:21:58;20.90;56.80
45785;DHT22;31489;51.404;5.474;2023-04-21T11:24:24;21.10;57.10
45785;DHT22;31489;51.404;5.474;2023-04-21T11:26:50;21.40;56.70
45785;DHT22;31489;51.404;5.474;2023-04-21T11:29:16;21.60;56.30
45785;DHT22;31489;51.404;5.474;2023-04-21T11:31:43;21.90;55.50
45785;DHT22;31489;51.404;5.474;2023-04-21T11:34:10;22.10;54.90
45785;DHT22;31489;51.404;5.474;2023-04-21T11:36:40;22.40;53.90
45785;DHT22;31489;51.404;5.474;2023-04-21T11:39:08;22.50;53.00
45785;DHT22;31489;51.404;5.474;2023-04-21T11:41:39;22.70;53.70
45785;DHT22;31489;51.404;5.474;2023-04-21T11:44:06;22.90;53.30
45785;DHT22;31489;51.404;5.474;2023-04-21T11:46:32;23.00;52.20
45785;DHT22;31489;51.404;5.474;2023-04-21T11:49:04;23.20;51.50
45785;DHT22;31489;51.404;5.474;2023-04-21T11:51:35;23.30;51.20
45785;DHT22;31489;51.404;5.474;2023-04-21T11:54:04;23.40;49.80
45785;DHT22;31489;51.404;5.474;2023-04-21T11:56:34;23.40;50.00
45785;DHT22;31489;51.404;5.474;2023-04-21T11:59:22;23.40;49.50
45785;DHT22;31489;51.404;5.474;2023-04-21T12:01:52;23.50;50.20
45785;DHT22;31489;51.404;5.474;2023-04-21T12:04:22;23.60;50.00
45785;DHT22;31489;51.404;5.474;2023-04-21T12:07:01;23.70;48.50
45785;DHT22;31489;51.404;5.474;2023-04-21T12:09:28;23.80;48.40
45785;DHT22;31489;51.404;5.474;2023-04-21T12:11:56;23.90;49.30
45785;DHT22;31489;51.404;5.474;2023-04-21T12:14:23;24.00;48.60
45785;DHT22;31489;51.404;5.474;2023-04-21T12:16:56;24.10;48.30
45785;DHT22;31489;51.404;5.474;2023-04-21T12:19:38;24.20;47.10
45785;DHT22;31489;51.404;5.474;2023-04-21T12:22:10;24.30;47.30
45785;DHT22;31489;51.404;5.474;2023-04-21T12:24:37;24.30;46.60
45785;DHT22;31489;51.404;5.474;2023-04-21T12:27:03;24.30;47.10
45785;DHT22;31489;51.404;5.474;2023-04-21T12:29:29;24.40;47.30
45785;DHT22;31489;51.404;5.474;2023-04-21T12:31:55;24.40;46.60
45785;DHT22;31489;51.404;5.474;2023-04-21T12:34:20;24.50;46.30
45785;DHT22;31489;51.404;5.474;2023-04-21T12:36:46;24.60;45.60
45785;DHT22;31489;51.404;5.474;2023-04-21T12:39:12;24.60;44.80
45785;DHT22;31489;51.404;5.474;2023-04-21T12:41:38;24.70;45.60
45785;DHT22;31489;51.404;5.474;2023-04-21T12:44:04;24.70;45.00
45785;DHT22;31489;51.404;5.474;2023-04-21T12:46:30;24.70;45.30
45785;DHT22;31489;51.404;5.474;2023-04-21T12:48:56;24.80;45.70
45785;DHT22;31489;51.404;5.474;2023-04-21T12:51:22;24.90;44.40
45785;DHT22;31489;51.404;5.474;2023-04-21T12:53:48;25.00;44.60
45785;DHT22;31489;51.404;5.474;2023-04-21T12:56:13;25.00;43.90
45785;DHT22;31489;51.404;5.474;2023-04-21T12:58:39;25.00;43.40
45785;DHT22;31489;51.404;5.474;2023-04-21T13:01:05;25.10;43.90
45785;DHT22;31489;51.404;5.474;2023-04-21T13:03:30;25.10;44.30
45785;DHT22;31489;51.404;5.474;2023-04-21T13:05:56;25.10;43.20
45785;DHT22;31489;51.404;5.474;2023-04-21T13:08:22;25.00;43.60
45785;DHT22;31489;51.404;5.474;2023-04-21T13:10:47;25.00;43.30
45785;DHT22;31489;51.404;5.474;2023-04-21T13:13:13;24.90;43.20
45785;DHT22;31489;51.404;5.474;2023-04-21T13:15:39;24.80;43.20
45785;DHT22;31489;51.404;5.474;2023-04-21T13:18:05;24.70;43.00
45785;DHT22;31489;51.404;5.474;2023-04-21T13:20:31;24.70;42.80
45785;DHT22;31489;51.404;5.474;2023-04-21T13:22:57;24.60;42.30
45785;DHT22;31489;51.404;5.474;2023-04-21T13:25:22;24.60;42.50
45785;DHT22;31489;51.404;5.474;2023-04-21T13:27:48;24.50;42.90
45785;DHT22;31489;51.404;5.474;2023-04-21T13:30:14;24.50;43.30
45785;DHT22;31489;51.404;5.474;2023-04-21T13:32:41;24.60;43.20
45785;DHT22;31489;51.404;5.474;2023-04-21T13:35:07;24.70;42.20
45785;DHT22;31489;51.404;5.474;2023-04-21T13:37:38;24.80;42.80
45785;DHT22;31489;51.404;5.474;2023-04-21T13:40:06;24.90;42.50
45785;DHT22;31489;51.404;5.474;2023-04-21T13:42:33;25.00;42.70
45785;DHT22;31489;51.404;5.474;2023-04-21T13:44:59;25.20;41.50
45785;DHT22;31489;51.404;5.474;2023-04-21T13:47:28;25.30;41.70
45785;DHT22;31489;51.404;5.474;2023-04-21T13:49:55;25.50;41.10
45785;DHT22;31489;51.404;5.474;2023-04-21T13:52:23;25.50;41.40
45785;DHT22;31489;51.404;5.474;2023-04-21T13:54:50;25.60;41.60
45785;DHT22;31489;51.404;5.474;2023-04-21T13:57:16;25.70;41.00
45785;DHT22;31489;51.404;5.474;2023-04-21T13:59:42;25.80;41.70
45785;DHT22;31489;51.404;5.474;2023-04-21T14:02:08;25.90;41.80
45785;DHT22;31489;51.404;5.474;2023-04-21T14:04:33;26.00;41.80
45785;DHT22;31489;51.404;5.474;2023-04-21T14:07:01;26.10;41.70
45785;DHT22;31489;51.404;5.474;2023-04-21T14:09:26;26.30;41.30
45785;DHT22;31489;51.404;5.474;2023-04-21T14:11:52;26.40;41.30
45785;DHT22;31489;51.404;5.474;2023-04-21T14:14:18;26.40;41.10
45785;DHT22;31489;51.404;5.474;2023-04-21T14:16:45;26.50;40.60
45785;DHT22;31489;51.404;5.474;2023-04-21T14:19:14;26.40;39.50
45785;DHT22;31489;51.404;5.474;2023-04-21T14:21:40;26.40;39.80
45785;DHT22;31489;51.404;5.474;2023-04-21T14:24:06;26.30;39.80
45785;DHT22;31489;51.404;5.474;2023-04-21T14:26:31;26.30;40.50
45785;DHT22;31489;51.404;5.474;2023-04-21T14:28:57;26.30;40.10
45785;DHT22;31489;51.404;5.474;2023-04-21T14:31:24;26.20;40.00
45785;DHT22;31489;51.404;5.474;2023-04-21T14:33:50;26.20;40.10
45785;DHT22;31489;51.404;5.474;2023-04-21T14:36:15;26.20;40.10
45785;DHT22;31489;51.404;5.474;2023-04-21T14:38:41;26.20;40.10
45785;DHT22;31489;51.404;5.474;2023-04-21T14:41:07;26.20;40.80
45785;DHT22;31489;51.404;5.474;2023-04-21T14:43:33;26.30;40.70
45785;DHT22;31489;51.404;5.474;2023-04-21T14:45:59;26.20;40.60
45785;DHT22;31489;51.404;5.474;2023-04-21T14:48:25;26.20;41.00
45785;DHT22;31489;51.404;5.474;2023-04-21T14:50:50;26.10;41.10
45785;DHT22;31489;51.404;5.474;2023-04-21T14:53:16;26.10;41.30
45785;DHT22;31489;51.404;5.474;2023-04-21T14:55:42;26.00;41.30
45785;DHT22;31489;51.404;5.474;2023-04-21T14:58:07;25.90;41.40
45785;DHT22;31489;51.404;5.474;2023-04-21T15:00:33;25.90;40.80
45785;DHT22;31489;51.404;5.474;2023-04-21T15:03:01;25.70;41.60
45785;DHT22;31489;51.404;5.474;2023-04-21T15:05:26;25.60;40.80
45785;DHT22;31489;51.404;5.474;2023-04-21T15:07:52;25.50;41.20
45785;DHT22;31489;51.404;5.474;2023-04-21T15:10:18;25.40;41.70
45785;DHT22;31489;51.404;5.474;2023-04-21T15:12:43;25.30;41.30
45785;DHT22;31489;51.404;5.474;2023-04-21T15:15:09;25.20;41.70
45785;DHT22;31489;51.404;5.474;2023-04-21T15:17:35;25.10;40.70
45785;DHT22;31489;51.404;5.474;2023-04-21T15:20:01;25.00;40.40
45785;DHT22;31489;51.404;5.474;2023-04-21T15:22:26;24.90;41.20
45785;DHT22;31489;51.404;5.474;2023-04-21T15:24:52;24.80;41.70
45785;DHT22;31489;51.404;5.474;2023-04-21T15:27:18;24.70;42.00
45785;DHT22;31489;51.404;5.474;2023-04-21T15:29:44;24.60;42.10
45785;DHT22;31489;51.404;5.474;2023-04-21T15:32:09;24.50;42.60
45785;DHT22;31489;51.404;5.474;2023-04-21T15:34:35;24.50;43.50